ENZV/SVG METAR and TAF weather

Enter ICAO airport designator
Station Type Date Time Source
ENZV METAR 2019/08/25 02:50 UTC NOAA

ENZV 250250Z 13002KT CAVOK 14/13 Q1022


Station Type Date Time Source
ENZV Decoded METAR 2019/08/25 02:50 UTC NOAA

Station name not available
Aug 24, 2019 - 10:50 PM EDT / 2019.08.25 0250 UTC
Wind: from the SE (130 degrees) at 2 MPH (2 KT):0
Visibility: greater than 7 mile(s):0
Temperature: 57 F (14 C)
Dew Point: 55 F (13 C)
Relative Humidity: 93%
Pressure (altimeter): 30.18 in. Hg (1022 hPa)
ob: ENZV 250250Z 13002KT CAVOK 14/13 Q1022
cycle: 3

Station Type Date Time Source
ENZV TAF 2019/08/24 21:21 UTC NOAA

TAF
AMD TAF
AMD ENZV 242117Z 2421/2518 15008KT 9999 FEW025 SCT100
TEMPO 2506/2512 17015G25KT PROB40 2512/2518 21012KT

Example: see airport list